sensor_id;sensor_type;location;lat;lon;timestamp;temperature;humidity
16437;DHT22;8328;52.206;21.006;2023-02-23T00:01:48;1.30;99.90
16437;DHT22;8328;52.206;21.006;2023-02-23T00:04:14;1.30;99.90
16437;DHT22;8328;52.206;21.006;2023-02-23T00:06:40;1.30;99.90
16437;DHT22;8328;52.206;21.006;2023-02-23T00:09:06;1.20;99.90
16437;DHT22;8328;52.206;21.006;2023-02-23T00:11:37;1.10;99.90
16437;DHT22;8328;52.206;21.006;2023-02-23T00:14:02;1.10;99.90
16437;DHT22;8328;52.206;21.006;2023-02-23T00:16:28;1.00;99.90
16437;DHT22;8328;52.206;21.006;2023-02-23T00:18:57;1.00;99.90
16437;DHT22;8328;52.206;21.006;2023-02-23T00:21:29;1.00;99.90
16437;DHT22;8328;52.206;21.006;2023-02-23T00:24:04;1.00;99.90
16437;DHT22;8328;52.206;21.006;2023-02-23T00:26:31;1.00;99.90
16437;DHT22;8328;52.206;21.006;2023-02-23T00:29:00;1.00;99.90
16437;DHT22;8328;52.206;21.006;2023-02-23T00:31:27;1.00;99.90
16437;DHT22;8328;52.206;21.006;2023-02-23T00:33:55;1.00;99.90
16437;DHT22;8328;52.206;21.006;2023-02-23T00:36:24;1.00;99.90
16437;DHT22;8328;52.206;21.006;2023-02-23T00:38:58;1.00;99.90
16437;DHT22;8328;52.206;21.006;2023-02-23T00:41:25;1.00;99.90
16437;DHT22;8328;52.206;21.006;2023-02-23T00:43:54;0.90;99.90
16437;DHT22;8328;52.206;21.006;2023-02-23T00:46:22;1.00;99.90
16437;DHT22;8328;52.206;21.006;2023-02-23T00:48:49;1.00;99.90
16437;DHT22;8328;52.206;21.006;2023-02-23T00:51:17;1.00;99.90
16437;DHT22;8328;52.206;21.006;2023-02-23T00:53:43;1.00;99.90
16437;DHT22;8328;52.206;21.006;2023-02-23T00:56:11;1.00;99.90
16437;DHT22;8328;52.206;21.006;2023-02-23T00:58:37;1.00;99.90
16437;DHT22;8328;52.206;21.006;2023-02-23T01:01:08;1.00;99.90
16437;DHT22;8328;52.206;21.006;2023-02-23T01:03:35;1.00;99.90
16437;DHT22;8328;52.206;21.006;2023-02-23T01:06:03;1.00;99.90
16437;DHT22;8328;52.206;21.006;2023-02-23T01:08:31;0.90;99.90
16437;DHT22;8328;52.206;21.006;2023-02-23T01:10:59;0.80;99.90
16437;DHT22;8328;52.206;21.006;2023-02-23T01:13:29;0.70;99.90
16437;DHT22;8328;52.206;21.006;2023-02-23T01:15:55;1.90;99.90
16437;DHT22;8328;52.206;21.006;2023-02-23T01:18:21;0.70;99.90
16437;DHT22;8328;52.206;21.006;2023-02-23T01:20:47;0.60;99.90
16437;DHT22;8328;52.206;21.006;2023-02-23T01:23:15;0.50;99.90
16437;DHT22;8328;52.206;21.006;2023-02-23T01:25:43;0.50;99.90
16437;DHT22;8328;52.206;21.006;2023-02-23T01:28:10;0.50;99.90
16437;DHT22;8328;52.206;21.006;2023-02-23T01:30:36;0.40;99.90
16437;DHT22;8328;52.206;21.006;2023-02-23T01:33:02;0.30;99.90
16437;DHT22;8328;52.206;21.006;2023-02-23T01:35:29;0.40;99.90
16437;DHT22;8328;52.206;21.006;2023-02-23T01:37:54;0.40;99.90
16437;DHT22;8328;52.206;21.006;2023-02-23T01:40:24;0.30;99.90
16437;DHT22;8328;52.206;21.006;2023-02-23T01:43:16;-0.90;99.90
16437;DHT22;8328;52.206;21.006;2023-02-23T01:45:43;0.20;99.90
16437;DHT22;8328;52.206;21.006;2023-02-23T01:48:21;0.20;99.90
16437;DHT22;8328;52.206;21.006;2023-02-23T01:50:51;0.20;99.90
16437;DHT22;8328;52.206;21.006;2023-02-23T01:53:19;0.20;99.90
16437;DHT22;8328;52.206;21.006;2023-02-23T01:55:51;0.10;99.90
16437;DHT22;8328;52.206;21.006;2023-02-23T01:58:21;0.10;99.90
16437;DHT22;8328;52.206;21.006;2023-02-23T02:00:58;0.10;99.90
16437;DHT22;8328;52.206;21.006;2023-02-23T02:03:37;0.10;99.90
16437;DHT22;8328;52.206;21.006;2023-02-23T02:06:04;0.10;99.90
16437;DHT22;8328;52.206;21.006;2023-02-23T02:08:36;0.10;99.90
16437;DHT22;8328;52.206;21.006;2023-02-23T02:11:17;0.10;99.90
16437;DHT22;8328;52.206;21.006;2023-02-23T02:14:03;0.10;99.90
16437;DHT22;8328;52.206;21.006;2023-02-23T02:19:58;0.00;99.90
16437;DHT22;8328;52.206;21.006;2023-02-23T02:37:43;0.00;99.90
16437;DHT22;8328;52.206;21.006;2023-02-23T02:46:29;0.40;99.90
16437;DHT22;8328;52.206;21.006;2023-02-23T02:49:03;0.60;99.90
16437;DHT22;8328;52.206;21.006;2023-02-23T02:54:40;0.80;99.90
16437;DHT22;8328;52.206;21.006;2023-02-23T02:57:08;0.70;99.90
16437;DHT22;8328;52.206;21.006;2023-02-23T02:59:46;0.70;99.90
16437;DHT22;8328;52.206;21.006;2023-02-23T03:02:32;0.70;99.90
16437;DHT22;8328;52.206;21.006;2023-02-23T03:05:40;0.70;99.90
16437;DHT22;8328;52.206;21.006;2023-02-23T03:11:30;0.70;99.90
16437;DHT22;8328;52.206;21.006;2023-02-23T03:14:54;0.60;99.90
16437;DHT22;8328;52.206;21.006;2023-02-23T03:17:45;0.40;99.90
16437;DHT22;8328;52.206;21.006;2023-02-23T03:26:46;0.30;99.90
16437;DHT22;8328;52.206;21.006;2023-02-23T03:29:59;0.30;99.90
16437;DHT22;8328;52.206;21.006;2023-02-23T03:32:53;0.30;99.90
16437;DHT22;8328;52.206;21.006;2023-02-23T03:35:52;0.40;99.90
16437;DHT22;8328;52.206;21.006;2023-02-23T03:41:29;0.80;99.90
16437;DHT22;8328;52.206;21.006;2023-02-23T03:44:19;0.90;99.90
16437;DHT22;8328;52.206;21.006;2023-02-23T03:47:06;1.10;99.90
16437;DHT22;8328;52.206;21.006;2023-02-23T03:49:53;1.10;99.90
16437;DHT22;8328;52.206;21.006;2023-02-23T03:52:48;1.20;99.90
16437;DHT22;8328;52.206;21.006;2023-02-23T03:55:38;1.30;99.90
16437;DHT22;8328;52.206;21.006;2023-02-23T03:58:32;1.40;99.90
16437;DHT22;8328;52.206;21.006;2023-02-23T04:01:19;1.50;99.90
16437;DHT22;8328;52.206;21.006;2023-02-23T04:04:06;1.50;99.90
16437;DHT22;8328;52.206;21.006;2023-02-23T04:06:53;1.50;99.90
16437;DHT22;8328;52.206;21.006;2023-02-23T04:09:39;1.50;99.90
16437;DHT22;8328;52.206;21.006;2023-02-23T04:18:25;1.70;99.90
16437;DHT22;8328;52.206;21.006;2023-02-23T04:20:53;1.70;99.90
16437;DHT22;8328;52.206;21.006;2023-02-23T04:23:19;1.70;99.90
16437;DHT22;8328;52.206;21.006;2023-02-23T04:25:50;1.80;99.90
16437;DHT22;8328;52.206;21.006;2023-02-23T04:28:17;1.80;99.90
16437;DHT22;8328;52.206;21.006;2023-02-23T04:30:43;1.70;99.90
16437;DHT22;8328;52.206;21.006;2023-02-23T04:33:09;1.70;99.90
16437;DHT22;8328;52.206;21.006;2023-02-23T04:35:35;1.80;99.90
16437;DHT22;8328;52.206;21.006;2023-02-23T04:38:01;1.70;99.90
16437;DHT22;8328;52.206;21.006;2023-02-23T04:40:27;1.80;99.90
16437;DHT22;8328;52.206;21.006;2023-02-23T04:42:53;1.70;99.90
16437;DHT22;8328;52.206;21.006;2023-02-23T04:45:21;1.70;99.90
16437;DHT22;8328;52.206;21.006;2023-02-23T04:47:48;1.70;99.90
16437;DHT22;8328;52.206;21.006;2023-02-23T04:50:14;1.70;99.90
16437;DHT22;8328;52.206;21.006;2023-02-23T04:52:40;1.70;99.90
16437;DHT22;8328;52.206;21.006;2023-02-23T04:55:08;1.70;99.90
16437;DHT22;8328;52.206;21.006;2023-02-23T04:57:37;1.70;99.90
16437;DHT22;8328;52.206;21.006;2023-02-23T05:00:03;1.70;99.90
16437;DHT22;8328;52.206;21.006;2023-02-23T05:02:29;1.70;99.90
16437;DHT22;8328;52.206;21.006;2023-02-23T05:04:56;1.70;99.90
16437;DHT22;8328;52.206;21.006;2023-02-23T05:07:22;1.70;99.90
16437;DHT22;8328;52.206;21.006;2023-02-23T05:09:48;1.70;99.90
16437;DHT22;8328;52.206;21.006;2023-02-23T05:12:13;1.60;99.90
16437;DHT22;8328;52.206;21.006;2023-02-23T05:14:39;2.50;99.90
16437;DHT22;8328;52.206;21.006;2023-02-23T05:17:05;1.60;99.90
16437;DHT22;8328;52.206;21.006;2023-02-23T05:19:31;1.60;99.90
16437;DHT22;8328;52.206;21.006;2023-02-23T05:21:57;1.60;99.90
16437;DHT22;8328;52.206;21.006;2023-02-23T05:24:23;1.70;99.90
16437;DHT22;8328;52.206;21.006;2023-02-23T05:26:50;1.60;99.90
16437;DHT22;8328;52.206;21.006;2023-02-23T05:29:16;1.60;99.90
16437;DHT22;8328;52.206;21.006;2023-02-23T05:31:42;1.60;99.90
16437;DHT22;8328;52.206;21.006;2023-02-23T05:34:08;1.60;99.90
16437;DHT22;8328;52.206;21.006;2023-02-23T05:36:34;1.60;99.90
16437;DHT22;8328;52.206;21.006;2023-02-23T05:39:01;1.60;99.90
16437;DHT22;8328;52.206;21.006;2023-02-23T05:41:27;1.60;99.90
16437;DHT22;8328;52.206;21.006;2023-02-23T05:43:54;1.70;99.90
16437;DHT22;8328;52.206;21.006;2023-02-23T05:46:23;1.60;99.90
16437;DHT22;8328;52.206;21.006;2023-02-23T05:48:50;1.60;99.90
16437;DHT22;8328;52.206;21.006;2023-02-23T05:51:17;1.70;99.90
16437;DHT22;8328;52.206;21.006;2023-02-23T05:53:43;1.70;99.90
16437;DHT22;8328;52.206;21.006;2023-02-23T05:56:15;1.70;99.90
16437;DHT22;8328;52.206;21.006;2023-02-23T05:58:49;1.80;99.90
16437;DHT22;8328;52.206;21.006;2023-02-23T06:01:16;1.40;99.90
16437;DHT22;8328;52.206;21.006;2023-02-23T06:03:43;1.90;99.90
16437;DHT22;8328;52.206;21.006;2023-02-23T06:06:09;1.90;99.90
16437;DHT22;8328;52.206;21.006;2023-02-23T06:08:35;1.90;99.90
16437;DHT22;8328;52.206;21.006;2023-02-23T06:11:01;1.90;99.90
16437;DHT22;8328;52.206;21.006;2023-02-23T06:13:28;1.60;99.90
16437;DHT22;8328;52.206;21.006;2023-02-23T06:15:54;2.00;99.90
16437;DHT22;8328;52.206;21.006;2023-02-23T06:18:20;2.00;99.90
16437;DHT22;8328;52.206;21.006;2023-02-23T06:20:46;2.20;99.90
16437;DHT22;8328;52.206;21.006;2023-02-23T06:23:12;3.00;99.90
16437;DHT22;8328;52.206;21.006;2023-02-23T06:25:40;3.90;99.90
16437;DHT22;8328;52.206;21.006;2023-02-23T06:28:06;4.20;99.90
16437;DHT22;8328;52.206;21.006;2023-02-23T06:30:34;4.20;99.90
16437;DHT22;8328;52.206;21.006;2023-02-23T06:33:00;5.20;99.90
16437;DHT22;8328;52.206;21.006;2023-02-23T06:35:26;5.50;99.90
16437;DHT22;8328;52.206;21.006;2023-02-23T06:37:52;6.20;99.90
16437;DHT22;8328;52.206;21.006;2023-02-23T06:40:19;6.50;99.90
16437;DHT22;8328;52.206;21.006;2023-02-23T06:42:45;6.10;99.90
16437;DHT22;8328;52.206;21.006;2023-02-23T06:45:11;5.70;99.90
16437;DHT22;8328;52.206;21.006;2023-02-23T06:47:41;5.40;99.90
16437;DHT22;8328;52.206;21.006;2023-02-23T06:50:08;4.70;99.90
16437;DHT22;8328;52.206;21.006;2023-02-23T06:52:34;4.30;99.90
16437;DHT22;8328;52.206;21.006;2023-02-23T06:55:01;4.00;99.90
16437;DHT22;8328;52.206;21.006;2023-02-23T06:57:27;3.80;99.90
16437;DHT22;8328;52.206;21.006;2023-02-23T06:59:52;3.60;99.90
16437;DHT22;8328;52.206;21.006;2023-02-23T07:02:18;3.50;99.90
16437;DHT22;8328;52.206;21.006;2023-02-23T07:04:44;3.50;99.90
16437;DHT22;8328;52.206;21.006;2023-02-23T07:07:10;3.40;99.90
16437;DHT22;8328;52.206;21.006;2023-02-23T07:09:39;3.40;99.90
16437;DHT22;8328;52.206;21.006;2023-02-23T07:12:05;3.30;99.90
16437;DHT22;8328;52.206;21.006;2023-02-23T07:14:31;3.30;99.90
16437;DHT22;8328;52.206;21.006;2023-02-23T07:16:57;3.30;99.90
16437;DHT22;8328;52.206;21.006;2023-02-23T07:19:23;3.30;99.90
16437;DHT22;8328;52.206;21.006;2023-02-23T07:21:49;3.40;99.90
16437;DHT22;8328;52.206;21.006;2023-02-23T07:24:15;3.40;99.90
16437;DHT22;8328;52.206;21.006;2023-02-23T07:26:41;3.50;99.90
16437;DHT22;8328;52.206;21.006;2023-02-23T07:29:11;3.60;99.90
16437;DHT22;8328;52.206;21.006;2023-02-23T07:31:38;3.80;99.90
16437;DHT22;8328;52.206;21.006;2023-02-23T07:34:04;4.00;99.90
16437;DHT22;8328;52.206;21.006;2023-02-23T07:36:29;4.10;99.90
16437;DHT22;8328;52.206;21.006;2023-02-23T07:38:55;4.20;99.90
16437;DHT22;8328;52.206;21.006;2023-02-23T07:41:22;4.30;99.90
16437;DHT22;8328;52.206;21.006;2023-02-23T07:43:48;4.40;99.90
16437;DHT22;8328;52.206;21.006;2023-02-23T07:46:14;4.40;99.90
16437;DHT22;8328;52.206;21.006;2023-02-23T07:48:40;4.40;99.90
16437;DHT22;8328;52.206;21.006;2023-02-23T07:51:13;4.40;99.90
16437;DHT22;8328;52.206;21.006;2023-02-23T07:53:40;4.60;99.90
16437;DHT22;8328;52.206;21.006;2023-02-23T07:56:07;4.70;99.90
16437;DHT22;8328;52.206;21.006;2023-02-23T07:58:36;4.80;99.90
16437;DHT22;8328;52.206;21.006;2023-02-23T08:01:04;4.80;99.90
16437;DHT22;8328;52.206;21.006;2023-02-23T08:03:30;4.80;99.90
16437;DHT22;8328;52.206;21.006;2023-02-23T08:05:56;4.90;99.90
16437;DHT22;8328;52.206;21.006;2023-02-23T08:08:22;5.00;99.90
16437;DHT22;8328;52.206;21.006;2023-02-23T08:10:47;5.20;99.90
16437;DHT22;8328;52.206;21.006;2023-02-23T08:13:14;5.40;99.90
16437;DHT22;8328;52.206;21.006;2023-02-23T08:15:41;5.40;99.90
16437;DHT22;8328;52.206;21.006;2023-02-23T08:18:08;5.30;99.90
16437;DHT22;8328;52.206;21.006;2023-02-23T08:20:33;5.20;99.90
16437;DHT22;8328;52.206;21.006;2023-02-23T08:23:00;5.30;99.90
16437;DHT22;8328;52.206;21.006;2023-02-23T08:25:25;5.50;99.90
16437;DHT22;8328;52.206;21.006;2023-02-23T08:27:54;5.50;99.90
16437;DHT22;8328;52.206;21.006;2023-02-23T08:30:22;5.60;99.90
16437;DHT22;8328;52.206;21.006;2023-02-23T08:32:48;5.60;99.90
16437;DHT22;8328;52.206;21.006;2023-02-23T08:35:15;5.70;99.90
16437;DHT22;8328;52.206;21.006;2023-02-23T08:37:43;5.60;99.90
16437;DHT22;8328;52.206;21.006;2023-02-23T08:40:11;5.60;99.90
16437;DHT22;8328;52.206;21.006;2023-02-23T08:42:43;5.60;99.90
16437;DHT22;8328;52.206;21.006;2023-02-23T08:45:10;5.60;99.90
16437;DHT22;8328;52.206;21.006;2023-02-23T08:47:36;5.40;99.90
16437;DHT22;8328;52.206;21.006;2023-02-23T08:50:04;5.50;99.90
16437;DHT22;8328;52.206;21.006;2023-02-23T08:52:30;5.70;99.90
16437;DHT22;8328;52.206;21.006;2023-02-23T08:54:56;5.80;99.90
16437;DHT22;8328;52.206;21.006;2023-02-23T08:57:22;6.00;99.90
16437;DHT22;8328;52.206;21.006;2023-02-23T08:59:48;6.00;99.90
16437;DHT22;8328;52.206;21.006;2023-02-23T09:02:14;5.90;99.90
16437;DHT22;8328;52.206;21.006;2023-02-23T09:04:40;5.80;99.90
16437;DHT22;8328;52.206;21.006;2023-02-23T09:07:13;5.80;99.90
16437;DHT22;8328;52.206;21.006;2023-02-23T09:09:39;5.80;99.90
16437;DHT22;8328;52.206;21.006;2023-02-23T09:12:05;5.70;99.90
16437;DHT22;8328;52.206;21.006;2023-02-23T09:14:33;5.80;99.90
16437;DHT22;8328;52.206;21.006;2023-02-23T09:17:00;5.90;99.90
16437;DHT22;8328;52.206;21.006;2023-02-23T09:19:26;6.10;99.90
16437;DHT22;8328;52.206;21.006;2023-02-23T09:21:52;6.30;99.90
16437;DHT22;8328;52.206;21.006;2023-02-23T09:24:20;6.50;99.90
16437;DHT22;8328;52.206;21.006;2023-02-23T09:26:49;6.80;99.90
16437;DHT22;8328;52.206;21.006;2023-02-23T09:29:17;7.00;99.90
16437;DHT22;8328;52.206;21.006;2023-02-23T09:31:43;7.10;99.90
16437;DHT22;8328;52.206;21.006;2023-02-23T09:34:09;7.20;99.90
16437;DHT22;8328;52.206;21.006;2023-02-23T09:36:38;7.30;99.90
16437;DHT22;8328;52.206;21.006;2023-02-23T09:39:04;7.20;99.90
16437;DHT22;8328;52.206;21.006;2023-02-23T09:41:49;7.10;99.90
16437;DHT22;8328;52.206;21.006;2023-02-23T09:44:47;7.20;99.90
16437;DHT22;8328;52.206;21.006;2023-02-23T09:47:33;7.20;99.90
16437;DHT22;8328;52.206;21.006;2023-02-23T09:50:21;7.30;99.90
16437;DHT22;8328;52.206;21.006;2023-02-23T09:52:55;7.10;99.90
16437;DHT22;8328;52.206;21.006;2023-02-23T09:55:22;7.10;99.90
16437;DHT22;8328;52.206;21.006;2023-02-23T09:57:48;7.10;99.90
16437;DHT22;8328;52.206;21.006;2023-02-23T10:00:21;7.20;99.90
16437;DHT22;8328;52.206;21.006;2023-02-23T10:05:57;7.10;99.90
16437;DHT22;8328;52.206;21.006;2023-02-23T10:11:22;7.10;99.90
16437;DHT22;8328;52.206;21.006;2023-02-23T10:14:13;7.20;99.90
16437;DHT22;8328;52.206;21.006;2023-02-23T10:17:08;7.30;99.90
16437;DHT22;8328;52.206;21.006;2023-02-23T10:19:55;7.50;99.90
16437;DHT22;8328;52.206;21.006;2023-02-23T10:22:27;7.50;99.90
16437;DHT22;8328;52.206;21.006;2023-02-23T10:25:03;7.50;99.90
16437;DHT22;8328;52.206;21.006;2023-02-23T10:27:43;7.60;99.90
16437;DHT22;8328;52.206;21.006;2023-02-23T10:30:33;7.70;99.90
16437;DHT22;8328;52.206;21.006;2023-02-23T10:33:13;7.70;99.90
16437;DHT22;8328;52.206;21.006;2023-02-23T10:35:43;7.80;99.90
16437;DHT22;8328;52.206;21.006;2023-02-23T10:38:17;7.70;99.90
16437;DHT22;8328;52.206;21.006;2023-02-23T10:40:45;7.80;99.90
16437;DHT22;8328;52.206;21.006;2023-02-23T10:43:13;7.90;99.90
16437;DHT22;8328;52.206;21.006;2023-02-23T10:45:46;8.00;99.90
16437;DHT22;8328;52.206;21.006;2023-02-23T10:48:21;8.20;99.90
16437;DHT22;8328;52.206;21.006;2023-02-23T10:50:49;8.40;99.90
16437;DHT22;8328;52.206;21.006;2023-02-23T10:53:26;8.50;99.90
16437;DHT22;8328;52.206;21.006;2023-02-23T11:01:13;9.30;99.90
16437;DHT22;8328;52.206;21.006;2023-02-23T11:03:47;9.50;99.90
16437;DHT22;8328;52.206;21.006;2023-02-23T11:06:34;9.70;99.90
16437;DHT22;8328;52.206;21.006;2023-02-23T11:09:27;10.00;99.90
16437;DHT22;8328;52.206;21.006;2023-02-23T11:12:00;10.40;99.90
16437;DHT22;8328;52.206;21.006;2023-02-23T11:14:29;10.50;99.90
16437;DHT22;8328;52.206;21.006;2023-02-23T11:16:56;10.70;99.90
16437;DHT22;8328;52.206;21.006;2023-02-23T11:19:36;10.90;99.90
16437;DHT22;8328;52.206;21.006;2023-02-23T11:22:03;11.20;99.90
16437;DHT22;8328;52.206;21.006;2023-02-23T11:24:35;11.30;99.70
16437;DHT22;8328;52.206;21.006;2023-02-23T11:27:05;11.30;98.90
16437;DHT22;8328;52.206;21.006;2023-02-23T11:29:32;11.50;98.30
16437;DHT22;8328;52.206;21.006;2023-02-23T11:32:06;11.50;97.80
16437;DHT22;8328;52.206;21.006;2023-02-23T11:34:34;11.50;96.80
16437;DHT22;8328;52.206;21.006;2023-02-23T11:39:58;11.10;96.20
16437;DHT22;8328;52.206;21.006;2023-02-23T11:42:29;11.10;96.30
16437;DHT22;8328;52.206;21.006;2023-02-23T11:45:14;11.10;95.90
16437;DHT22;8328;52.206;21.006;2023-02-23T11:47:44;11.20;95.90
16437;DHT22;8328;52.206;21.006;2023-02-23T11:50:23;11.30;95.30
16437;DHT22;8328;52.206;21.006;2023-02-23T11:53:03;11.20;95.50
16437;DHT22;8328;52.206;21.006;2023-02-23T11:55:31;11.50;95.00
16437;DHT22;8328;52.206;21.006;2023-02-23T12:01:00;11.40;94.40
16437;DHT22;8328;52.206;21.006;2023-02-23T12:03:31;11.40;93.60
16437;DHT22;8328;52.206;21.006;2023-02-23T12:05:58;11.20;93.90
16437;DHT22;8328;52.206;21.006;2023-02-23T12:08:46;11.20;93.50
16437;DHT22;8328;52.206;21.006;2023-02-23T12:11:24;11.10;93.20
16437;DHT22;8328;52.206;21.006;2023-02-23T12:14:01;11.20;93.10
16437;DHT22;8328;52.206;21.006;2023-02-23T12:16:45;11.30;93.10
16437;DHT22;8328;52.206;21.006;2023-02-23T12:19:30;11.40;93.10
16437;DHT22;8328;52.206;21.006;2023-02-23T12:30:03;11.10;92.20
16437;DHT22;8328;52.206;21.006;2023-02-23T12:35:27;10.90;92.30
16437;DHT22;8328;52.206;21.006;2023-02-23T12:40:33;10.50;92.80
16437;DHT22;8328;52.206;21.006;2023-02-23T12:43:49;10.40;93.20
16437;DHT22;8328;52.206;21.006;2023-02-23T12:46:17;10.20;93.00
16437;DHT22;8328;52.206;21.006;2023-02-23T12:51:49;10.00;93.80
16437;DHT22;8328;52.206;21.006;2023-02-23T12:54:18;9.90;94.30
16437;DHT22;8328;52.206;21.006;2023-02-23T13:03:03;9.80;94.90
16437;DHT22;8328;52.206;21.006;2023-02-23T13:05:42;9.80;94.90
16437;DHT22;8328;52.206;21.006;2023-02-23T13:08:28;9.80;95.00
16437;DHT22;8328;52.206;21.006;2023-02-23T13:11:10;9.80;95.30
16437;DHT22;8328;52.206;21.006;2023-02-23T13:13:52;9.80;95.30
16437;DHT22;8328;52.206;21.006;2023-02-23T13:21:57;9.80;95.80
16437;DHT22;8328;52.206;21.006;2023-02-23T13:24:37;9.90;95.70
16437;DHT22;8328;52.206;21.006;2023-02-23T13:27:29;9.90;95.70
16437;DHT22;8328;52.206;21.006;2023-02-23T13:29:59;9.90;95.50
16437;DHT22;8328;52.206;21.006;2023-02-23T13:32:28;9.80;95.80
16437;DHT22;8328;52.206;21.006;2023-02-23T13:35:04;9.70;95.90
16437;DHT22;8328;52.206;21.006;2023-02-23T13:43:37;9.60;96.60
16437;DHT22;8328;52.206;21.006;2023-02-23T13:51:43;9.40;96.90
16437;DHT22;8328;52.206;21.006;2023-02-23T13:56:44;9.40;97.10
16437;DHT22;8328;52.206;21.006;2023-02-23T13:59:23;9.40;97.10
16437;DHT22;8328;52.206;21.006;2023-02-23T14:01:51;9.40;97.60
16437;DHT22;8328;52.206;21.006;2023-02-23T14:04:21;9.90;97.70
16437;DHT22;8328;52.206;21.006;2023-02-23T14:09:40;9.00;97.20
16437;DHT22;8328;52.206;21.006;2023-02-23T14:12:16;9.00;97.80
16437;DHT22;8328;52.206;21.006;2023-02-23T14:14:48;8.90;98.00
16437;DHT22;8328;52.206;21.006;2023-02-23T14:19:59;8.80;98.70
16437;DHT22;8328;52.206;21.006;2023-02-23T14:22:29;8.70;98.80
16437;DHT22;8328;52.206;21.006;2023-02-23T14:28:01;8.60;99.00
16437;DHT22;8328;52.206;21.006;2023-02-23T14:30:46;8.60;99.20
16437;DHT22;8328;52.206;21.006;2023-02-23T14:41:50;8.60;99.80
16437;DHT22;8328;52.206;21.006;2023-02-23T14:44:27;8.10;99.70
16437;DHT22;8328;52.206;21.006;2023-02-23T14:49:30;8.60;99.90
16437;DHT22;8328;52.206;21.006;2023-02-23T14:52:04;8.60;99.90
16437;DHT22;8328;52.206;21.006;2023-02-23T14:54:36;8.50;99.90
16437;DHT22;8328;52.206;21.006;2023-02-23T14:57:05;8.40;99.90
16437;DHT22;8328;52.206;21.006;2023-02-23T14:59:41;8.30;99.90
16437;DHT22;8328;52.206;21.006;2023-02-23T15:02:22;8.20;99.90
16437;DHT22;8328;52.206;21.006;2023-02-23T15:04:48;7.90;99.90
16437;DHT22;8328;52.206;21.006;2023-02-23T15:07:21;8.10;99.90
16437;DHT22;8328;52.206;21.006;2023-02-23T15:09:54;7.60;99.90
16437;DHT22;8328;52.206;21.006;2023-02-23T15:12:24;8.00;99.90
16437;DHT22;8328;52.206;21.006;2023-02-23T15:14:56;8.10;99.90
16437;DHT22;8328;52.206;21.006;2023-02-23T15:17:25;8.00;99.90
16437;DHT22;8328;52.206;21.006;2023-02-23T15:19:57;7.90;99.90
16437;DHT22;8328;52.206;21.006;2023-02-23T15:22:34;7.80;99.90
16437;DHT22;8328;52.206;21.006;2023-02-23T15:25:12;7.70;99.90
16437;DHT22;8328;52.206;21.006;2023-02-23T15:27:40;7.50;99.90
16437;DHT22;8328;52.206;21.006;2023-02-23T15:30:31;7.40;99.90
16437;DHT22;8328;52.206;21.006;2023-02-23T15:33:02;7.30;99.90
16437;DHT22;8328;52.206;21.006;2023-02-23T15:35:30;7.20;99.90
16437;DHT22;8328;52.206;21.006;2023-02-23T15:38:00;7.10;99.90
16437;DHT22;8328;52.206;21.006;2023-02-23T15:40:27;7.00;99.90
16437;DHT22;8328;52.206;21.006;2023-02-23T15:42:56;6.90;99.90
16437;DHT22;8328;52.206;21.006;2023-02-23T15:45:35;6.70;99.90
16437;DHT22;8328;52.206;21.006;2023-02-23T15:48:08;6.60;99.90
16437;DHT22;8328;52.206;21.006;2023-02-23T15:50:42;6.50;99.90
16437;DHT22;8328;52.206;21.006;2023-02-23T15:56:13;6.40;99.90
16437;DHT22;8328;52.206;21.006;2023-02-23T15:58:47;6.30;99.90
16437;DHT22;8328;52.206;21.006;2023-02-23T16:01:32;6.20;99.90
16437;DHT22;8328;52.206;21.006;2023-02-23T16:04:05;6.00;99.90
16437;DHT22;8328;52.206;21.006;2023-02-23T16:06:36;6.00;99.90
16437;DHT22;8328;52.206;21.006;2023-02-23T16:11:55;5.80;99.90
16437;DHT22;8328;52.206;21.006;2023-02-23T16:14:29;5.70;99.90
16437;DHT22;8328;52.206;21.006;2023-02-23T16:16:57;5.60;99.90
16437;DHT22;8328;52.206;21.006;2023-02-23T16:19:25;5.50;99.90
16437;DHT22;8328;52.206;21.006;2023-02-23T16:21:55;5.50;99.90
16437;DHT22;8328;52.206;21.006;2023-02-23T16:24:28;5.40;99.90
16437;DHT22;8328;52.206;21.006;2023-02-23T16:26:59;5.40;99.90
16437;DHT22;8328;52.206;21.006;2023-02-23T16:29:33;5.40;99.90
16437;DHT22;8328;52.206;21.006;2023-02-23T16:32:15;5.30;99.90
16437;DHT22;8328;52.206;21.006;2023-02-23T16:37:22;5.30;99.90
16437;DHT22;8328;52.206;21.006;2023-02-23T16:39:50;5.30;99.90
16437;DHT22;8328;52.206;21.006;2023-02-23T16:44:48;5.40;99.90
16437;DHT22;8328;52.206;21.006;2023-02-23T16:49:51;5.40;99.90
16437;DHT22;8328;52.206;21.006;2023-02-23T16:52:20;5.30;99.90
16437;DHT22;8328;52.206;21.006;2023-02-23T16:54:47;5.30;99.90
16437;DHT22;8328;52.206;21.006;2023-02-23T16:57:38;5.20;99.90
16437;DHT22;8328;52.206;21.006;2023-02-23T17:00:05;5.20;99.90
16437;DHT22;8328;52.206;21.006;2023-02-23T17:02:40;5.20;99.90
16437;DHT22;8328;52.206;21.006;2023-02-23T17:05:13;5.10;99.90
16437;DHT22;8328;52.206;21.006;2023-02-23T17:07:40;5.10;99.90
16437;DHT22;8328;52.206;21.006;2023-02-23T17:10:07;5.10;99.90
16437;DHT22;8328;52.206;21.006;2023-02-23T17:12:34;5.10;99.90
16437;DHT22;8328;52.206;21.006;2023-02-23T17:15:01;5.20;99.90
16437;DHT22;8328;52.206;21.006;2023-02-23T17:17:28;5.20;99.90
16437;DHT22;8328;52.206;21.006;2023-02-23T17:19:55;5.20;99.90
16437;DHT22;8328;52.206;21.006;2023-02-23T17:22:21;5.20;99.90
16437;DHT22;8328;52.206;21.006;2023-02-23T17:24:48;5.30;99.90
16437;DHT22;8328;52.206;21.006;2023-02-23T17:27:14;4.90;99.90
16437;DHT22;8328;52.206;21.006;2023-02-23T17:29:40;5.30;99.90
16437;DHT22;8328;52.206;21.006;2023-02-23T17:32:06;5.40;99.90
16437;DHT22;8328;52.206;21.006;2023-02-23T17:34:32;5.40;99.90
16437;DHT22;8328;52.206;21.006;2023-02-23T17:36:58;5.40;99.90
16437;DHT22;8328;52.206;21.006;2023-02-23T17:39:24;5.40;99.90
16437;DHT22;8328;52.206;21.006;2023-02-23T17:41:52;5.40;99.90
16437;DHT22;8328;52.206;21.006;2023-02-23T17:44:18;5.40;99.90
16437;DHT22;8328;52.206;21.006;2023-02-23T17:46:45;5.40;99.90
16437;DHT22;8328;52.206;21.006;2023-02-23T17:49:10;5.50;99.90
16437;DHT22;8328;52.206;21.006;2023-02-23T17:51:36;5.50;99.90
16437;DHT22;8328;52.206;21.006;2023-02-23T17:54:02;5.60;99.90
16437;DHT22;8328;52.206;21.006;2023-02-23T17:56:27;5.60;99.90
16437;DHT22;8328;52.206;21.006;2023-02-23T17:58:55;5.60;99.90
16437;DHT22;8328;52.206;21.006;2023-02-23T18:01:21;5.60;99.90
16437;DHT22;8328;52.206;21.006;2023-02-23T18:03:49;5.60;99.90
16437;DHT22;8328;52.206;21.006;2023-02-23T18:06:15;5.60;99.90
16437;DHT22;8328;52.206;21.006;2023-02-23T18:08:41;5.60;99.90
16437;DHT22;8328;52.206;21.006;2023-02-23T18:11:08;5.60;99.90
16437;DHT22;8328;52.206;21.006;2023-02-23T18:13:34;5.60;99.90
16437;DHT22;8328;52.206;21.006;2023-02-23T18:16:04;5.60;99.90
16437;DHT22;8328;52.206;21.006;2023-02-23T18:18:32;5.60;99.90
16437;DHT22;8328;52.206;21.006;2023-02-23T18:20:59;5.60;99.90
16437;DHT22;8328;52.206;21.006;2023-02-23T18:23:26;5.50;99.90
16437;DHT22;8328;52.206;21.006;2023-02-23T18:26:08;5.50;99.90
16437;DHT22;8328;52.206;21.006;2023-02-23T18:28:35;5.50;99.90
16437;DHT22;8328;52.206;21.006;2023-02-23T18:31:02;5.40;99.90